LFOC 301030Z AUTO 06013KT 030V090 CAVOK 22/06 Q1019

ElémentsDécodage
LFOC Station météo située sur l'aérodrome de CHATEAUDUN
301030Z émis le 30 du mois à 10h30 UTC
AUTO Bulletin édité par un automate
06013KT vent du 060°, 13 noeuds
030V090 vent de direction variable entre 030° et 090°
CAVOK Ceiling And Visibility OK
- Visibilité de 10 Km ou plus
- Pas de nuage au-dessous de 1500m ou au-dessous de l'altitude minimale du secteur la plus élevée (si>1500m) et absence de CB
- pas de temps présent significatif
22/06 température 22°C, point de rosée 06°C
 soit une humidité relative de 35%
Q1019 la pression au niveau de la mer (QNH) est de 1019 hPa